Terminal Aerodrome Forecast
Issued by NWS Tiyan, Guam

Home | Current Version | Previous Version | Text Only | Print | Product List | Glossary On
Versions: 1 2 3 4 5 6 7 8 9 10 11 12 13
000
FTPQ31 PGUM 021737
TAFGUM
TAF
PGUM 021737Z 0218/0324 07010KT P6SM VCSH SCT020 SCT050 BKN070
     FM022300 07015KT P6SM VCSH SCT020 SCT040 SCT060=

USA.gov is the U.S. government's official web portal to all federal, state and local government web resources and services.